aviador You're here:

KOFF Decoded Metar

OMAHA in NE, USA
Report Time2017-11-24 10:56:00
UTC Time2017-11-24 11:22:37
Flight Rules vfr VFR
Wind120° at 05 kt
W.Decomp.*RWY 12: 5.0 kt HW 0.4 kt LCW
W.Rank120° ranks 4
Current wind is below 120° avg. (7.6)
Visibility9999 m
Phenomena:N/A
Clouds:N/A
Expected CloudBase > 1,600 ft AGL from Temp-Dew spread
CeilingNone
Temp07°C (ISA -6)
Dew Point03°C (76% RH)
AAT3.7°C
QNH1002 hPa
Density Alt820 ft
Elevation1,047 ft
Report Wrong Elevation
Raw Report
KOFF 241056Z AUTO 12005KT 10SM CLR 07/03 A2958 RMK AO2 SLP022
T00720029 $=

Extra information for KOFF:More info

Metar Taf Metar & Taf Last 4 Metars F.Rules Stats Wind Profile Meteogram Temp Stats Airport Information Weather charts Add Link Nearby VenuesMetar ALERT Operation Metar Decoded Social comments

AIRNAV info for KOFF